Time;durP1;ratioP1;P1;durP2;ratioP2;P2;SDS_P1;SDS_P2;PMS_P1;PMS_P2;Temp;Humidity;BMP_temperature;BMP_pressure;BME280_temperature;BME280_humidity;BME280_pressure;Samples;Min_cycle;Max_cycle;Signal;HPM_P1;HPM_P2
2022/01/02 00:02:08;;;;;;;4.77;3.13;;;12.00;1.00;;;;;;6218029;23;20450;-55
2022/01/02 00:04:36;;;;;;;8.90;3.20;;;12.00;1.00;;;;;;6215487;23;20366;-56
2022/01/02 00:07:05;;;;;;;4.77;3.60;;;12.00;1.00;;;;;;6214897;23;20389;-56
2022/01/02 00:09:33;;;;;;;4.90;3.10;;;12.00;1.00;;;;;;6215045;23;20405;-55
2022/01/02 00:12:08;;;;;;;5.47;3.07;;;12.00;1.00;;;;;;6214151;23;20373;-56
2022/01/02 00:14:36;;;;;;;6.00;2.97;;;12.00;1.00;;;;;;6214611;23;20372;-55
2022/01/02 00:17:03;;;;;;;8.03;3.30;;;11.90;1.00;;;;;;6214091;23;20431;-55
2022/01/02 00:19:31;;;;;;;5.80;3.33;;;11.90;1.00;;;;;;6214947;23;20366;-56
2022/01/02 00:22:01;;;;;;;8.17;3.43;;;11.90;1.00;;;;;;6213612;23;20378;-55
2022/01/02 00:24:28;;;;;;;4.57;3.00;;;11.90;1.00;;;;;;6214492;23;20362;-57
2022/01/02 00:26:55;;;;;;;11.10;3.23;;;11.90;1.00;;;;;;6215115;23;20401;-58
2022/01/02 00:29:22;;;;;;;10.63;3.70;;;11.90;1.00;;;;;;6212820;23;20385;-57
2022/01/02 00:31:48;;;;;;;5.77;3.10;;;11.90;1.00;;;;;;6213399;23;20374;-58
2022/01/02 00:34:18;;;;;;;4.80;3.03;;;11.90;1.00;;;;;;6214943;23;20380;-58
2022/01/02 00:36:43;;;;;;;7.90;3.40;;;11.90;1.00;;;;;;6215967;23;20456;-58
2022/01/02 00:39:09;;;;;;;7.23;3.87;;;12.00;1.00;;;;;;6215258;23;20678;-58
2022/01/02 00:41:53;;;;;;;6.13;3.30;;;12.00;1.00;;;;;;6214754;23;20220;-58
2022/01/02 00:44:43;;;;;;;7.73;3.20;;;11.90;1.00;;;;;;6214836;23;20366;-59
2022/01/02 00:47:16;;;;;;;5.93;3.53;;;11.90;1.00;;;;;;6212950;23;20709;-58
2022/01/02 00:49:51;;;;;;;5.80;3.30;;;11.80;1.00;;;;;;6212834;23;20393;-57
2022/01/02 00:52:17;;;;;;;6.30;3.37;;;11.90;1.00;;;;;;6213243;23;20436;-58
2022/01/02 00:54:45;;;;;;;5.57;3.23;;;11.90;1.00;;;;;;6213204;23;20373;-58
2022/01/02 00:57:16;;;;;;;5.13;3.70;;;11.90;1.00;;;;;;6212740;23;20421;-56
2022/01/02 00:59:47;;;;;;;6.60;3.60;;;11.80;1.00;;;;;;6212898;23;20382;-55
2022/01/02 01:02:18;;;;;;;7.20;3.20;;;11.80;1.00;;;;;;6212769;23;20835;-55
2022/01/02 01:04:44;;;;;;;4.10;2.93;;;11.80;1.00;;;;;;6212691;23;20355;-55
2022/01/02 01:07:10;;;;;;;5.40;3.37;;;11.80;1.00;;;;;;6212897;23;20382;-55
2022/01/02 01:09:35;;;;;;;6.57;3.90;;;11.70;1.00;;;;;;6212640;23;20362;-56
2022/01/02 01:12:03;;;;;;;5.73;3.70;;;11.70;1.00;;;;;;6212688;23;20477;-57
2022/01/02 01:14:29;;;;;;;7.87;3.90;;;11.70;1.00;;;;;;6212939;23;20158;-55
2022/01/02 01:16:56;;;;;;;6.53;3.70;;;11.60;1.00;;;;;;6212494;23;20428;-55
2022/01/02 01:19:22;;;;;;;3.50;3.20;;;11.60;1.00;;;;;;6212649;23;20701;-55
2022/01/02 01:21:49;;;;;;;7.53;4.20;;;11.60;1.90;;;;;;6212677;23;20366;-56
2022/01/02 01:24:15;;;;;;;9.53;3.90;;;11.60;7.10;;;;;;6212799;23;20381;-55
2022/01/02 01:26:41;;;;;;;8.00;4.43;;;11.60;8.50;;;;;;6212529;23;20362;-55
2022/01/02 01:29:07;;;;;;;4.60;3.80;;;11.60;14.50;;;;;;6212648;23;20485;-55
2022/01/02 01:31:32;;;;;;;6.03;3.80;;;11.50;30.80;;;;;;6212631;23;20154;-55
2022/01/02 01:33:58;;;;;;;7.30;3.90;;;11.40;42.20;;;;;;6212892;23;20394;-55
2022/01/02 01:36:24;;;;;;;5.63;3.90;;;11.30;57.40;;;;;;6212376;23;20496;-55
2022/01/02 01:38:49;;;;;;;5.70;3.97;;;11.30;71.00;;;;;;6212359;23;20147;-56
2022/01/02 01:41:25;;;;;;;5.37;3.87;;;11.20;91.80;;;;;;6212525;23;20150;-55
2022/01/02 01:44:04;;;;;;;7.93;4.40;;;11.20;99.90;;;;;;6212450;23;20413;-54
2022/01/02 01:46:30;;;;;;;7.57;4.23;;;11.20;99.90;;;;;;6212593;23;20365;-55
2022/01/02 01:48:56;;;;;;;10.50;4.67;;;11.30;99.90;;;;;;6212261;23;20504;-56
2022/01/02 01:51:22;;;;;;;8.57;4.00;;;11.30;98.10;;;;;;6212030;23;20284;-55
2022/01/02 01:53:48;;;;;;;9.37;4.27;;;11.30;96.90;;;;;;6212340;23;20150;-55
2022/01/02 01:56:14;;;;;;;7.70;4.37;;;11.30;97.40;;;;;;6212167;23;20884;-55
2022/01/02 01:58:40;;;;;;;10.13;4.97;;;11.30;99.70;;;;;;6212480;23;20499;-56
2022/01/02 02:01:06;;;;;;;7.63;4.67;;;11.30;99.40;;;;;;6185711;23;20401;-56
2022/01/02 02:03:31;;;;;;;13.63;4.97;;;11.30;99.90;;;;;;6212092;23;20166;-55
2022/01/02 02:05:57;;;;;;;5.50;4.10;;;11.30;99.90;;;;;;6212177;23;20214;-56
2022/01/02 02:08:26;;;;;;;7.10;4.60;;;11.30;99.90;;;;;;6212340;23;20580;-55
2022/01/02 02:10:57;;;;;;;9.33;4.60;;;11.20;99.90;;;;;;6212412;23;20558;-54
2022/01/02 02:13:24;;;;;;;7.00;5.07;;;11.20;99.90;;;;;;6212240;23;20441;-56
2022/01/02 02:15:51;;;;;;;12.20;5.33;;;11.20;99.90;;;;;;6212349;23;20961;-55
2022/01/02 02:18:18;;;;;;;10.70;5.60;;;11.10;99.90;;;;;;6212038;23;20768;-55
2022/01/02 02:20:43;;;;;;;14.07;5.57;;;11.10;99.90;;;;;;6212083;23;20847;-55
2022/01/02 02:23:13;;;;;;;9.80;5.10;;;11.10;99.90;;;;;;6185541;23;20412;-55
2022/01/02 02:25:38;;;;;;;8.57;5.40;;;11.00;99.90;;;;;;6212237;23;20151;-55
2022/01/02 02:28:11;;;;;;;8.73;5.57;;;11.00;99.90;;;;;;6212206;23;20863;-54
2022/01/02 02:30:40;;;;;;;12.90;5.37;;;11.00;99.90;;;;;;6211810;23;20366;-55
2022/01/02 02:33:08;;;;;;;9.93;5.60;;;10.90;99.90;;;;;;6212112;23;20821;-55
2022/01/02 02:35:35;;;;;;;9.47;5.47;;;10.90;99.90;;;;;;6212186;23;20380;-55
2022/01/02 02:38:00;;;;;;;7.80;4.80;;;10.90;99.90;;;;;;6212380;23;20377;-55
2022/01/02 02:40:28;;;;;;;12.60;6.80;;;10.90;99.90;;;;;;6211840;23;20378;-56
2022/01/02 02:43:05;;;;;;;12.40;6.67;;;10.80;99.90;;;;;;6211975;23;20147;-55
2022/01/02 02:51:12;;;;;;;12.73;5.90;;;10.80;99.90;;;;;;6211800;23;20937;-55
2022/01/02 02:53:41;;;;;;;10.03;6.30;;;10.80;99.90;;;;;;6214008;23;20453;-55
2022/01/02 02:56:23;;;;;;;11.83;6.60;;;10.80;99.90;;;;;;6213933;23;20413;-55
2022/01/02 02:58:51;;;;;;;13.40;6.30;;;10.80;99.90;;;;;;6214307;23;20385;-55
2022/01/02 03:01:19;;;;;;;11.30;6.40;;;10.80;99.90;;;;;;6214130;23;20432;-55
2022/01/02 03:03:46;;;;;;;12.20;7.07;;;10.80;99.90;;;;;;6213942;23;20389;-55
2022/01/02 03:06:13;;;;;;;11.20;7.10;;;10.80;99.90;;;;;;6213812;23;20444;-55
2022/01/02 03:08:40;;;;;;;12.43;5.83;;;10.80;99.90;;;;;;6213924;23;20427;-55
2022/01/02 03:11:09;;;;;;;10.63;6.33;;;10.70;99.90;;;;;;6213827;23;20388;-55
2022/01/02 03:13:35;;;;;;;10.03;6.80;;;10.80;99.90;;;;;;6213790;23;20882;-56
2022/01/02 03:16:00;;;;;;;10.40;6.93;;;10.70;99.90;;;;;;6213654;23;20417;-55
2022/01/02 03:18:26;;;;;;;15.07;7.10;;;10.70;99.90;;;;;;6213721;23;20371;-55
2022/01/02 03:20:51;;;;;;;13.30;6.87;;;10.70;99.90;;;;;;6213917;23;20162;-54
2022/01/02 03:23:17;;;;;;;11.33;6.87;;;10.70;99.90;;;;;;6213812;23;20589;-55
2022/01/02 03:25:43;;;;;;;9.80;6.33;;;10.70;99.90;;;;;;6214032;23;20481;-55
2022/01/02 03:28:08;;;;;;;11.97;7.43;;;10.70;99.90;;;;;;6213847;23;20221;-55
2022/01/02 03:30:34;;;;;;;10.63;6.60;;;10.70;99.90;;;;;;6213469;23;20616;-55
2022/01/02 03:33:00;;;;;;;12.20;6.93;;;10.70;99.90;;;;;;6213859;23;20480;-55
2022/01/02 03:35:25;;;;;;;13.73;7.27;;;10.70;99.90;;;;;;6214527;23;20217;-55
2022/01/02 03:37:51;;;;;;;10.83;7.10;;;10.60;99.90;;;;;;6213500;23;20664;-54
2022/01/02 03:40:17;;;;;;;10.83;6.80;;;10.60;99.90;;;;;;6213624;23;20147;-55
2022/01/02 03:42:42;;;;;;;16.83;8.00;;;10.60;99.90;;;;;;6213467;23;20593;-55
2022/01/02 03:45:09;;;;;;;13.20;7.47;;;10.60;99.90;;;;;;6213462;23;20515;-55
2022/01/02 03:47:34;;;;;;;12.30;6.83;;;10.60;99.90;;;;;;6213604;23;20166;-55
2022/01/02 03:50:01;;;;;;;9.63;7.07;;;10.60;99.90;;;;;;6186542;23;20408;-55
2022/01/02 03:52:27;;;;;;;15.10;7.90;;;10.60;99.90;;;;;;6213319;23;20208;-55
2022/01/02 03:54:53;;;;;;;14.23;8.03;;;10.60;99.90;;;;;;6213478;23;20378;-55
2022/01/02 03:57:19;;;;;;;14.40;8.20;;;10.60;99.90;;;;;;6213310;23;20185;-55
2022/01/02 03:59:45;;;;;;;13.83;8.27;;;10.60;99.90;;;;;;6213330;23;20151;-55
2022/01/02 04:02:10;;;;;;;14.23;7.90;;;10.60;99.90;;;;;;6213380;23;20150;-54
2022/01/02 04:04:36;;;;;;;13.67;8.17;;;10.60;99.90;;;;;;6213250;23;20471;-55
2022/01/02 04:07:02;;;;;;;12.40;8.10;;;10.50;99.90;;;;;;6213382;23;20154;-55
2022/01/02 04:09:27;;;;;;;17.33;8.87;;;10.60;99.90;;;;;;6213335;23;20147;-56
2022/01/02 04:11:53;;;;;;;12.30;8.33;;;10.60;99.90;;;;;;6213543;23;20162;-55
2022/01/02 04:14:18;;;;;;;18.40;8.90;;;10.60;99.90;;;;;;6213231;23;20150;-55
2022/01/02 04:16:44;;;;;;;17.13;9.20;;;10.60;99.90;;;;;;6213399;23;20178;-55
2022/01/02 04:19:10;;;;;;;15.43;9.47;;;10.60;99.90;;;;;;6214073;23;20221;-55
2022/01/02 04:21:35;;;;;;;16.17;9.30;;;10.60;99.90;;;;;;6213246;23;20174;-55
2022/01/02 04:24:01;;;;;;;20.00;9.53;;;10.60;99.90;;;;;;6213419;23;20520;-55
2022/01/02 04:26:26;;;;;;;15.93;9.80;;;10.60;99.90;;;;;;6213132;23;20585;-56
2022/01/02 04:28:52;;;;;;;15.10;10.00;;;10.60;99.90;;;;;;6213260;23;20151;-55
2022/01/02 04:31:17;;;;;;;18.87;9.73;;;10.60;99.90;;;;;;6213359;23;20165;-55
2022/01/02 04:33:43;;;;;;;15.80;9.70;;;10.60;99.90;;;;;;6213623;23;20143;-55
2022/01/02 04:36:09;;;;;;;17.30;9.33;;;10.50;99.90;;;;;;6213451;23;20620;-55
2022/01/02 04:38:36;;;;;;;16.63;9.43;;;10.60;99.90;;;;;;6213150;23;20165;-55
2022/01/02 04:41:02;;;;;;;19.33;10.27;;;10.60;99.90;;;;;;6212946;23;20588;-55
2022/01/02 04:43:28;;;;;;;19.63;10.60;;;10.60;99.90;;;;;;6212997;23;20381;-55
2022/01/02 04:45:53;;;;;;;17.03;10.13;;;10.60;99.90;;;;;;6213447;23;20167;-55
2022/01/02 04:48:19;;;;;;;17.33;10.40;;;10.60;99.90;;;;;;6213072;23;20166;-55
2022/01/02 04:50:45;;;;;;;18.13;9.80;;;10.60;99.90;;;;;;6212856;23;20202;-55
2022/01/02 04:53:10;;;;;;;16.40;10.13;;;10.60;99.90;;;;;;6213107;23;20143;-55
2022/01/02 04:55:36;;;;;;;19.97;11.57;;;10.60;99.90;;;;;;6212845;23;20835;-55
2022/01/02 04:58:02;;;;;;;22.20;11.93;;;10.60;99.90;;;;;;6213084;23;20154;-56
2022/01/02 05:00:27;;;;;;;19.33;11.47;;;10.50;99.90;;;;;;6213198;23;20169;-55
2022/01/02 05:02:53;;;;;;;18.00;11.40;;;10.50;99.90;;;;;;6212891;23;20170;-55
2022/01/02 05:05:19;;;;;;;20.43;11.87;;;10.50;99.90;;;;;;6212977;23;20142;-55
2022/01/02 05:07:45;;;;;;;20.50;12.47;;;10.60;99.90;;;;;;6212973;23;20492;-54
2022/01/02 05:10:10;;;;;;;17.30;11.90;;;10.60;99.90;;;;;;6212659;23;20381;-55
2022/01/02 05:12:36;;;;;;;18.33;11.03;;;10.60;99.90;;;;;;6212812;23;20955;-55
2022/01/02 05:15:03;;;;;;;18.63;11.73;;;10.60;99.90;;;;;;6212705;23;20162;-55
2022/01/02 05:17:29;;;;;;;20.53;11.57;;;10.60;99.90;;;;;;6185821;23;20185;-55
2022/01/02 05:19:54;;;;;;;19.27;11.30;;;10.60;99.90;;;;;;6212576;23;20378;-55
2022/01/02 05:22:20;;;;;;;19.50;11.03;;;10.60;99.90;;;;;;6212776;23;20185;-55
2022/01/02 05:24:46;;;;;;;15.20;10.53;;;10.60;99.90;;;;;;6212412;23;20143;-54
2022/01/02 05:27:12;;;;;;;18.10;12.40;;;10.60;99.90;;;;;;6212628;23;20714;-54
2022/01/02 05:29:37;;;;;;;15.80;11.30;;;10.60;99.90;;;;;;6212491;23;20213;-55
2022/01/02 05:32:03;;;;;;;20.67;11.80;;;10.60;99.90;;;;;;6212597;23;20227;-54
2022/01/02 05:34:28;;;;;;;19.53;12.00;;;10.60;99.90;;;;;;6212529;23;20242;-54
2022/01/02 05:36:54;;;;;;;16.10;11.83;;;10.60;99.90;;;;;;6185786;23;20205;-55
2022/01/02 05:39:21;;;;;;;17.40;12.30;;;10.60;99.90;;;;;;6212607;23;20146;-55
2022/01/02 05:41:47;;;;;;;19.37;12.30;;;10.60;99.90;;;;;;6213108;23;20155;-54
2022/01/02 05:44:13;;;;;;;22.20;12.47;;;10.60;99.90;;;;;;6212517;23;20851;-54
2022/01/02 05:46:40;;;;;;;19.60;13.10;;;10.60;99.90;;;;;;6212829;23;20396;-55
2022/01/02 05:49:07;;;;;;;22.57;13.23;;;10.60;99.90;;;;;;6212524;23;20370;-55
2022/01/02 05:51:32;;;;;;;18.73;12.37;;;10.60;99.90;;;;;;6212219;23;20437;-54
2022/01/02 05:53:58;;;;;;;23.33;12.60;;;10.60;99.90;;;;;;6212587;23;20900;-55
2022/01/02 05:56:24;;;;;;;20.67;12.50;;;10.70;99.90;;;;;;6212208;23;20184;-54
2022/01/02 05:58:49;;;;;;;24.10;12.20;;;10.70;99.90;;;;;;6185583;23;20564;-55
2022/01/02 06:01:15;;;;;;;20.93;11.67;;;10.70;99.90;;;;;;6212290;23;20661;-54
2022/01/02 06:03:41;;;;;;;19.20;11.80;;;10.70;99.90;;;;;;6212160;23;20233;-55
2022/01/02 06:06:06;;;;;;;23.83;11.87;;;10.70;99.90;;;;;;6212230;23;20174;-55
2022/01/02 06:08:32;;;;;;;24.87;12.60;;;10.70;99.90;;;;;;6212139;23;20158;-55
2022/01/02 06:10:57;;;;;;;25.30;11.37;;;10.70;99.90;;;;;;6212154;23;20648;-55
2022/01/02 06:13:23;;;;;;;24.90;11.60;;;10.60;99.90;;;;;;6185553;23;20168;-56
2022/01/02 06:15:49;;;;;;;17.97;11.50;;;10.70;99.90;;;;;;6212021;23;20170;-55
2022/01/02 06:18:15;;;;;;;19.20;11.13;;;10.60;99.90;;;;;;6212331;23;20166;-55
2022/01/02 06:20:40;;;;;;;19.77;11.63;;;10.70;99.90;;;;;;6212207;23;20139;-55
2022/01/02 06:23:06;;;;;;;19.70;11.47;;;10.70;99.90;;;;;;6212040;23;20832;-55
2022/01/02 06:25:33;;;;;;;19.33;10.83;;;10.70;99.90;;;;;;6212372;23;20146;-55
2022/01/02 06:27:59;;;;;;;21.60;11.40;;;10.70;99.90;;;;;;6212168;23;20149;-55
2022/01/02 06:30:25;;;;;;;24.50;12.13;;;10.70;99.90;;;;;;6212149;23;20385;-55
2022/01/02 06:32:54;;;;;;;19.10;11.17;;;10.70;99.90;;;;;;6212131;23;20150;-55
2022/01/02 06:35:23;;;;;;;21.17;12.30;;;10.80;99.90;;;;;;6212301;23;20154;-55
2022/01/02 06:37:48;;;;;;;30.10;12.57;;;10.70;99.90;;;;;;6211925;23;20406;-54
2022/01/02 06:40:14;;;;;;;28.67;14.00;;;10.70;99.90;;;;;;6212358;23;20394;-55
2022/01/02 06:42:40;;;;;;;23.30;11.47;;;10.70;99.90;;;;;;6212629;23;20139;-55
2022/01/02 06:45:06;;;;;;;18.80;11.17;;;10.80;99.90;;;;;;6212358;23;20242;-55
2022/01/02 06:47:32;;;;;;;19.37;12.03;;;10.80;99.90;;;;;;6212044;23;20585;-55
2022/01/02 06:49:57;;;;;;;18.23;11.17;;;10.80;99.90;;;;;;6185458;23;20492;-56
2022/01/02 06:52:23;;;;;;;17.90;10.60;;;10.80;99.90;;;;;;6212212;23;20654;-55
2022/01/02 06:54:52;;;;;;;16.77;11.07;;;10.80;99.90;;;;;;6212182;23;20161;-54
2022/01/02 06:57:18;;;;;;;17.63;11.50;;;10.80;99.90;;;;;;6211945;23;20597;-55
2022/01/02 06:59:44;;;;;;;20.53;11.43;;;10.80;99.90;;;;;;6211720;23;20388;-54
2022/01/02 07:02:09;;;;;;;19.73;10.90;;;10.80;99.90;;;;;;6211999;23;20449;-54
2022/01/02 07:04:35;;;;;;;20.70;12.90;;;10.80;99.90;;;;;;6211903;23;20608;-55
2022/01/02 07:07:00;;;;;;;20.40;11.93;;;10.80;99.90;;;;;;6211762;23;20225;-55
2022/01/02 07:09:29;;;;;;;19.90;11.10;;;10.80;99.90;;;;;;6211956;23;20157;-55
2022/01/02 07:11:55;;;;;;;18.80;11.67;;;10.80;99.90;;;;;;6211721;23;20162;-55
2022/01/02 07:14:20;;;;;;;21.40;11.90;;;10.80;99.90;;;;;;6211927;23;20401;-56
2022/01/02 07:16:46;;;;;;;18.10;10.63;;;10.80;99.90;;;;;;6211777;23;20174;-55
2022/01/02 07:19:11;;;;;;;16.97;11.60;;;10.90;99.90;;;;;;6185110;23;20159;-54
2022/01/02 07:21:37;;;;;;;20.10;12.20;;;10.80;99.90;;;;;;6211759;23;20143;-55
2022/01/02 07:24:03;;;;;;;26.17;12.03;;;10.90;99.90;;;;;;6185050;23;20197;-55
2022/01/02 07:26:28;;;;;;;18.93;12.43;;;10.80;99.90;;;;;;6211878;23;20386;-55
2022/01/02 07:28:54;;;;;;;18.77;11.10;;;10.90;99.90;;;;;;6211976;23;20162;-55
2022/01/02 07:31:19;;;;;;;19.83;12.27;;;10.90;99.90;;;;;;6211999;23;20269;-55
2022/01/02 07:33:45;;;;;;;24.83;11.97;;;10.90;99.90;;;;;;6212203;23;20150;-55
2022/01/02 07:36:10;;;;;;;22.33;11.40;;;10.90;99.90;;;;;;6211475;23;20186;-55
2022/01/02 07:38:36;;;;;;;16.70;10.80;;;10.90;99.90;;;;;;6212701;23;20166;-55
2022/01/02 07:41:02;;;;;;;19.87;9.83;;;10.90;99.90;;;;;;6213539;23;20548;-55
2022/01/02 07:43:27;;;;;;;22.70;11.77;;;11.00;99.90;;;;;;6213599;23;20226;-55
2022/01/02 07:45:53;;;;;;;23.13;11.40;;;11.00;99.90;;;;;;6213513;23;20162;-55
2022/01/02 07:48:18;;;;;;;27.20;10.80;;;11.00;99.90;;;;;;6213476;23;20174;-55
2022/01/02 07:50:44;;;;;;;24.50;11.20;;;11.00;99.90;;;;;;6213401;23;20673;-55
2022/01/02 07:53:09;;;;;;;17.60;10.17;;;11.10;99.90;;;;;;6213471;23;20154;-56
2022/01/02 07:55:35;;;;;;;24.13;12.17;;;11.10;99.90;;;;;;6213390;23;20158;-56
2022/01/02 07:58:01;;;;;;;19.33;10.67;;;11.10;99.90;;;;;;6213516;23;20146;-55
2022/01/02 08:00:26;;;;;;;19.83;10.97;;;11.10;99.90;;;;;;6213652;23;20147;-55
2022/01/02 08:02:52;;;;;;;32.40;11.87;;;11.10;99.90;;;;;;6213362;23;20801;-55
2022/01/02 08:05:18;;;;;;;20.87;10.73;;;11.10;99.90;;;;;;6213383;23;20578;-55
2022/01/02 08:07:43;;;;;;;17.13;9.63;;;11.20;99.90;;;;;;6214216;23;20186;-55
2022/01/02 08:10:09;;;;;;;19.97;9.93;;;11.20;99.90;;;;;;6213266;23;20162;-55
2022/01/02 08:12:35;;;;;;;24.60;10.83;;;11.20;99.90;;;;;;6213613;23;20162;-54
2022/01/02 08:15:00;;;;;;;17.90;10.57;;;11.20;99.90;;;;;;6213202;23;20389;-55
2022/01/02 08:17:27;;;;;;;21.17;10.00;;;11.20;99.90;;;;;;6213190;23;20266;-55
2022/01/02 08:19:53;;;;;;;24.53;9.53;;;11.20;99.90;;;;;;6213160;23;20174;-55
2022/01/02 08:22:19;;;;;;;26.40;9.93;;;11.30;99.90;;;;;;6213300;23;20433;-55
2022/01/02 08:24:44;;;;;;;20.93;9.63;;;11.30;99.90;;;;;;6213439;23;20169;-57
2022/01/02 08:27:10;;;;;;;22.13;9.40;;;11.30;99.90;;;;;;6213178;23;20162;-55
2022/01/02 08:29:35;;;;;;;20.87;8.50;;;11.30;99.90;;;;;;6213217;23;20150;-54
2022/01/02 08:32:01;;;;;;;23.83;8.70;;;11.30;99.90;;;;;;6213235;23;20158;-55
2022/01/02 08:34:26;;;;;;;18.77;8.97;;;11.30;99.90;;;;;;6213083;23;20143;-54
2022/01/02 08:36:52;;;;;;;17.93;8.07;;;11.40;99.90;;;;;;6212989;23;20179;-55
2022/01/02 08:39:17;;;;;;;13.63;8.00;;;11.50;99.90;;;;;;6212972;23;20142;-55
2022/01/02 08:41:43;;;;;;;15.30;7.93;;;11.50;99.90;;;;;;6213101;23;20225;-55
2022/01/02 08:44:08;;;;;;;14.33;8.37;;;11.50;99.90;;;;;;6213181;23;20146;-55
2022/01/02 08:46:34;;;;;;;16.83;8.30;;;11.50;99.90;;;;;;6213451;23;20663;-55
2022/01/02 08:48:59;;;;;;;15.40;8.00;;;11.60;99.90;;;;;;6212553;23;20147;-55
2022/01/02 08:51:27;;;;;;;16.00;7.57;;;11.60;99.90;;;;;;6212747;23;20273;-55
2022/01/02 08:53:53;;;;;;;12.73;6.30;;;11.60;99.90;;;;;;6212911;23;20157;-56
2022/01/02 08:56:18;;;;;;;11.60;6.80;;;11.60;99.90;;;;;;6212851;23;20413;-56
2022/01/02 08:58:44;;;;;;;20.97;6.97;;;11.60;99.90;;;;;;6212792;23;20138;-55
2022/01/02 09:01:10;;;;;;;13.37;6.17;;;11.70;99.90;;;;;;6212894;23;20151;-55
2022/01/02 09:03:35;;;;;;;21.37;6.73;;;11.70;99.90;;;;;;6212575;23;20161;-55
2022/01/02 09:06:01;;;;;;;11.90;6.60;;;11.80;99.90;;;;;;6212743;23;20145;-55
2022/01/02 09:08:26;;;;;;;11.93;6.40;;;11.80;99.90;;;;;;6212734;23;20159;-55
2022/01/02 09:10:52;;;;;;;16.50;5.70;;;11.80;99.90;;;;;;6186008;23;20162;-55
2022/01/02 09:13:17;;;;;;;13.07;5.80;;;11.80;99.90;;;;;;6213078;23;20147;-54
2022/01/02 09:15:43;;;;;;;12.23;5.80;;;11.90;99.90;;;;;;6212642;23;20162;-55
2022/01/02 09:18:09;;;;;;;11.90;5.70;;;11.90;99.90;;;;;;6212591;23;20562;-55
2022/01/02 09:20:34;;;;;;;12.73;5.70;;;11.90;99.90;;;;;;6212593;23;20151;-55
2022/01/02 09:23:00;;;;;;;9.30;5.47;;;11.90;99.90;;;;;;6212573;23;20389;-54
2022/01/02 09:25:26;;;;;;;13.30;6.47;;;11.90;99.90;;;;;;6212865;23;20568;-55
2022/01/02 09:27:51;;;;;;;12.00;5.37;;;11.90;99.90;;;;;;6212786;23;20147;-55
2022/01/02 09:30:17;;;;;;;9.27;5.50;;;12.00;99.90;;;;;;6212524;23;20462;-56
2022/01/02 09:32:43;;;;;;;9.77;5.40;;;12.00;99.90;;;;;;6212754;23;20518;-55
2022/01/02 09:35:10;;;;;;;16.63;5.20;;;12.00;99.90;;;;;;6212451;23;20443;-55
2022/01/02 09:37:36;;;;;;;11.63;4.93;;;12.00;99.90;;;;;;6212362;23;20921;-55
2022/01/02 09:40:05;;;;;;;11.37;5.60;;;12.00;99.90;;;;;;6212711;23;20428;-55
2022/01/02 09:42:32;;;;;;;9.73;5.37;;;12.00;99.90;;;;;;6185720;23;20409;-54
2022/01/02 09:44:57;;;;;;;8.70;5.67;;;12.10;99.90;;;;;;6212414;23;20370;-55
2022/01/02 09:47:23;;;;;;;17.10;5.57;;;12.10;99.90;;;;;;6212245;23;20382;-55
2022/01/02 09:49:49;;;;;;;11.37;5.70;;;12.10;99.90;;;;;;6212372;23;20585;-55
2022/01/02 09:52:15;;;;;;;7.57;4.70;;;12.10;99.90;;;;;;6212218;23;20214;-55
2022/01/02 09:54:41;;;;;;;10.47;5.13;;;12.20;99.90;;;;;;6212216;23;20473;-55
2022/01/02 09:57:07;;;;;;;12.20;4.90;;;12.10;99.90;;;;;;6212296;23;20444;-55
2022/01/02 09:59:32;;;;;;;13.30;4.97;;;12.20;99.90;;;;;;6212311;23;20390;-55
2022/01/02 10:01:59;;;;;;;10.93;4.60;;;12.20;99.90;;;;;;6211962;23;20735;-55
2022/01/02 10:04:39;;;;;;;9.23;4.50;;;12.20;99.90;;;;;;6212287;23;20456;-55
2022/01/02 10:07:06;;;;;;;13.20;4.90;;;12.20;99.90;;;;;;6213191;23;20969;-56
2022/01/02 10:09:37;;;;;;;13.27;4.70;;;12.20;99.90;;;;;;6212406;23;20867;-55
2022/01/02 10:12:30;;;;;;;16.37;5.20;;;12.20;99.90;;;;;;6212349;23;20366;-55
2022/01/02 10:15:11;;;;;;;8.30;4.50;;;12.20;99.90;;;;;;6212036;23;20358;-54
2022/01/02 10:18:08;;;;;;;16.03;4.97;;;12.30;99.90;;;;;;6212153;23;20420;-54
2022/01/02 10:20:42;;;;;;;11.73;4.70;;;12.20;99.90;;;;;;6212126;23;20763;-54
2022/01/02 10:23:22;;;;;;;7.63;4.33;;;12.20;99.90;;;;;;6212188;23;20384;-55
2022/01/02 10:25:53;;;;;;;10.13;5.00;;;12.20;99.90;;;;;;6212097;23;20842;-54
2022/01/02 10:28:20;;;;;;;9.60;4.40;;;12.20;99.90;;;;;;6212030;23;20362;-54
2022/01/02 10:30:50;;;;;;;11.50;4.43;;;12.20;99.90;;;;;;6212243;23;20385;-54
2022/01/02 10:33:16;;;;;;;9.80;4.80;;;12.20;99.90;;;;;;6212036;23;20357;-54
2022/01/02 10:35:42;;;;;;;7.80;4.20;;;12.10;99.90;;;;;;6212009;23;20416;-54
2022/01/02 10:38:15;;;;;;;9.40;4.60;;;12.10;99.90;;;;;;6211985;23;20233;-55
2022/01/02 10:40:41;;;;;;;5.40;4.23;;;12.10;99.90;;;;;;6212626;23;20477;-55
2022/01/02 10:43:09;;;;;;;7.93;4.47;;;12.10;99.90;;;;;;6212640;23;20407;-54
2022/01/02 10:45:44;;;;;;;8.00;4.33;;;12.10;99.90;;;;;;6212043;23;20369;-54
2022/01/02 10:48:15;;;;;;;11.93;4.97;;;12.10;99.90;;;;;;6211988;23;20688;-54
2022/01/02 10:51:02;;;;;;;9.73;4.70;;;12.10;99.90;;;;;;6211751;23;20420;-55
2022/01/02 10:53:28;;;;;;;11.40;4.33;;;12.10;99.90;;;;;;6211967;23;20372;-55
2022/01/02 10:55:54;;;;;;;12.90;4.53;;;12.10;99.90;;;;;;6212055;23;20372;-54
2022/01/02 10:58:20;;;;;;;11.23;5.43;;;12.10;99.90;;;;;;6211743;23;20377;-55
2022/01/02 11:00:46;;;;;;;9.20;4.43;;;12.10;99.90;;;;;;6211956;23;20138;-55
2022/01/02 11:03:12;;;;;;;8.73;4.80;;;12.10;99.90;;;;;;6211833;23;20245;-55
2022/01/02 11:05:39;;;;;;;9.70;4.93;;;12.10;99.90;;;;;;6212208;23;20385;-55
2022/01/02 11:08:06;;;;;;;11.33;4.60;;;12.10;99.90;;;;;;6211868;23;20468;-55
2022/01/02 11:10:33;;;;;;;10.33;4.60;;;12.10;99.90;;;;;;6211867;23;20394;-55
2022/01/02 11:13:00;;;;;;;14.30;4.90;;;12.10;99.90;;;;;;6212229;23;20382;-55
2022/01/02 11:15:28;;;;;;;9.90;4.40;;;12.00;99.90;;;;;;6213836;23;20358;-55
2022/01/02 11:17:54;;;;;;;13.40;5.83;;;12.00;99.90;;;;;;6213662;23;20494;-54
2022/01/02 11:20:31;;;;;;;10.47;4.50;;;12.10;99.90;;;;;;6213706;23;20366;-55
2022/01/02 11:23:09;;;;;;;9.90;5.20;;;12.10;99.90;;;;;;6214027;23;20415;-54
2022/01/02 11:25:53;;;;;;;10.70;4.53;;;12.00;99.90;;;;;;6213744;23;20376;-57
2022/01/02 11:28:41;;;;;;;12.57;5.17;;;12.00;99.90;;;;;;6213594;23;20468;-54
2022/01/02 11:31:09;;;;;;;12.37;4.87;;;12.00;99.90;;;;;;6213660;23;20760;-55
2022/01/02 11:33:39;;;;;;;13.70;5.07;;;12.00;99.90;;;;;;6213700;23;20394;-55
2022/01/02 11:36:32;;;;;;;8.53;4.97;;;12.00;99.90;;;;;;6214064;23;20809;-54
2022/01/02 11:39:05;;;;;;;12.90;4.73;;;12.00;99.90;;;;;;6187019;23;20382;-54
2022/01/02 11:41:51;;;;;;;14.40;5.40;;;12.00;99.90;;;;;;6213473;23;20876;-55
2022/01/02 11:44:23;;;;;;;11.90;5.03;;;12.00;99.90;;;;;;6213569;23;20368;-54
2022/01/02 11:46:53;;;;;;;14.60;5.10;;;12.00;99.90;;;;;;6213651;23;20370;-54
2022/01/02 11:49:25;;;;;;;6.43;4.90;;;12.00;99.90;;;;;;6213583;23;20377;-54
2022/01/02 11:51:57;;;;;;;14.67;5.60;;;11.90;99.90;;;;;;6213389;23;20437;-55
2022/01/02 11:54:29;;;;;;;18.03;5.40;;;11.90;99.90;;;;;;6213434;23;20849;-55
2022/01/02 11:57:23;;;;;;;12.60;6.37;;;11.90;99.90;;;;;;6213161;23;20506;-55
2022/01/02 11:59:48;;;;;;;12.37;5.80;;;11.90;99.90;;;;;;6213455;23;20393;-55
2022/01/02 12:02:23;;;;;;;9.70;5.70;;;11.80;99.90;;;;;;6213686;23;20741;-55
2022/01/02 12:07:34;;;;;;;16.57;6.10;;;11.70;99.90;;;;;;6213907;23;20808;-55
2022/01/02 12:10:20;;;;;;;14.50;6.30;;;11.70;99.90;;;;;;6214077;23;20833;-55
2022/01/02 12:12:58;;;;;;;19.83;6.27;;;11.80;99.90;;;;;;6213672;23;20878;-55
2022/01/02 12:15:32;;;;;;;13.30;6.10;;;11.80;99.90;;;;;;6213389;23;20362;-55
2022/01/02 12:18:11;;;;;;;13.97;5.90;;;11.80;99.90;;;;;;6213411;23;20409;-55
2022/01/02 12:21:00;;;;;;;15.13;6.40;;;11.80;99.90;;;;;;6186615;23;20385;-55
2022/01/02 12:23:41;;;;;;;14.03;6.30;;;11.90;99.90;;;;;;6213225;23;20381;-55
2022/01/02 12:26:16;;;;;;;12.07;5.53;;;11.90;99.90;;;;;;6213305;23;20376;-55
2022/01/02 12:28:44;;;;;;;13.50;6.43;;;11.90;99.90;;;;;;6213488;23;20896;-55
2022/01/02 12:31:12;;;;;;;12.90;5.90;;;11.90;99.90;;;;;;6213169;23;20424;-55
2022/01/02 12:33:38;;;;;;;13.47;5.70;;;12.00;99.90;;;;;;6213016;23;20393;-55
2022/01/02 12:36:16;;;;;;;15.67;5.47;;;12.00;99.90;;;;;;6213111;23;20413;-55
2022/01/02 12:38:59;;;;;;;9.57;4.90;;;12.00;99.90;;;;;;6213033;23;20354;-54
2022/01/02 12:41:28;;;;;;;12.73;6.03;;;12.10;99.90;;;;;;6213165;23;20384;-55
2022/01/02 12:43:55;;;;;;;11.30;6.13;;;12.10;99.90;;;;;;6213156;23;20689;-55
2022/01/02 12:46:38;;;;;;;13.23;5.60;;;12.10;99.90;;;;;;6213287;23;20762;-55
2022/01/02 12:49:13;;;;;;;11.53;5.70;;;12.10;99.90;;;;;;6213561;23;20373;-54
2022/01/02 12:51:44;;;;;;;23.00;6.23;;;12.10;99.90;;;;;;6213020;23;20448;-54